createdAt,value
2019-06-10T00:01:06.991Z,4.40
2019-06-10T00:03:36.515Z,3.98
2019-06-10T00:06:07.038Z,4.53
2019-06-10T00:08:37.511Z,4.25
2019-06-10T00:11:07.977Z,4.83
2019-06-10T00:13:38.344Z,4.30
2019-06-10T00:16:11.305Z,4.25
2019-06-10T00:18:45.138Z,4.05
2019-06-10T00:21:13.190Z,4.35
2019-06-10T00:23:43.664Z,3.98
2019-06-10T00:26:14.194Z,4.35
2019-06-10T00:28:44.618Z,4.00
2019-06-10T00:31:15.066Z,4.15
2019-06-10T00:33:45.468Z,3.83
2019-06-10T00:36:15.895Z,3.60
2019-06-10T00:38:46.292Z,3.92
2019-06-10T00:41:16.755Z,4.20
2019-06-10T00:43:47.179Z,4.15
2019-06-10T00:46:17.569Z,4.05
2019-06-10T00:48:48.054Z,4.47
2019-06-10T00:51:20.780Z,3.92
2019-06-10T00:53:51.362Z,4.00
2019-06-10T00:56:21.982Z,3.90
2019-06-10T00:58:52.369Z,4.37
2019-06-10T01:01:22.756Z,4.15
2019-06-10T01:03:53.341Z,4.45
2019-06-10T01:06:23.848Z,3.95
2019-06-10T01:08:54.260Z,3.95
2019-06-10T01:11:27.125Z,3.75
2019-06-10T01:13:56.707Z,3.90
2019-06-10T01:16:27.052Z,3.45
2019-06-10T01:18:57.443Z,4.08
2019-06-10T01:21:27.803Z,3.80
2019-06-10T01:23:58.231Z,4.05
2019-06-10T01:26:30.841Z,4.10
2019-06-10T01:29:01.067Z,3.35
2019-06-10T01:31:31.905Z,4.00
2019-06-10T01:34:02.345Z,3.80
2019-06-10T01:36:32.770Z,3.83
2019-06-10T01:39:03.550Z,3.85
2019-06-10T01:41:33.921Z,4.30
2019-06-10T01:44:04.400Z,4.12
2019-06-10T01:46:34.855Z,3.95
2019-06-10T01:49:05.336Z,3.60
2019-06-10T01:51:35.818Z,4.20
2019-06-10T01:54:07.362Z,3.40
2019-06-10T01:56:37.954Z,3.80
2019-06-10T01:59:10.968Z,3.75
2019-06-10T02:01:44.592Z,3.62
2019-06-10T02:04:16.570Z,3.75
2019-06-10T02:06:47.689Z,3.42
2019-06-10T02:09:18.817Z,3.72
2019-06-10T02:11:51.394Z,3.40
2019-06-10T02:14:24.241Z,3.50
2019-06-10T02:16:54.567Z,3.75
2019-06-10T02:19:25.033Z,3.62
2019-06-10T02:21:55.451Z,3.17
2019-06-10T02:24:25.999Z,3.55
2019-06-10T02:26:56.459Z,3.47
2019-06-10T02:29:26.868Z,3.17
2019-06-10T02:31:57.236Z,3.10
2019-06-10T02:34:28.622Z,2.98
2019-06-10T02:36:59.222Z,3.40
2019-06-10T02:39:35.048Z,2.98
2019-06-10T02:42:05.828Z,3.35
2019-06-10T02:44:37.675Z,3.57
2019-06-10T02:47:08.272Z,3.67
2019-06-10T02:49:55.720Z,2.70
2019-06-10T02:52:23.276Z,3.35
2019-06-10T02:54:53.585Z,2.80
2019-06-10T02:57:30.440Z,3.42
2019-06-10T02:59:56.404Z,3.40
2019-06-10T03:02:31.819Z,3.52
2019-06-10T03:04:58.877Z,3.25
2019-06-10T03:07:32.619Z,3.17
2019-06-10T03:10:04.517Z,3.47
2019-06-10T03:12:33.478Z,3.35
2019-06-10T03:15:05.187Z,3.08
2019-06-10T03:17:35.675Z,2.92
2019-06-10T03:20:07.605Z,3.08
2019-06-10T03:22:38.140Z,3.27
2019-06-10T03:25:10.187Z,3.10
2019-06-10T03:27:42.448Z,2.92
2019-06-10T03:30:17.198Z,3.02
2019-06-10T03:32:46.628Z,3.17
2019-06-10T03:35:17.363Z,3.30
2019-06-10T03:37:47.845Z,3.00
2019-06-10T03:40:18.545Z,3.25
2019-06-10T03:42:48.957Z,3.05
2019-06-10T03:45:19.339Z,3.35
2019-06-10T03:47:49.705Z,2.85
2019-06-10T03:50:21.897Z,3.20
2019-06-10T03:52:52.514Z,3.20
2019-06-10T03:55:25.011Z,3.20
2019-06-10T03:57:54.991Z,3.58
2019-06-10T04:00:27.192Z,3.40
2019-06-10T04:02:57.460Z,3.42
2019-06-10T04:05:28.863Z,3.20
2019-06-10T04:08:02.003Z,3.30
2019-06-10T04:10:32.456Z,3.67
2019-06-10T04:13:02.989Z,3.90
2019-06-10T04:15:33.641Z,3.60
2019-06-10T04:18:04.152Z,3.30
2019-06-10T04:20:34.610Z,2.77
2019-06-10T04:23:05.008Z,3.50
2019-06-10T04:25:36.442Z,3.40
2019-06-10T04:28:06.803Z,3.58
2019-06-10T04:30:37.275Z,3.50
2019-06-10T04:33:07.695Z,3.30
2019-06-10T04:35:38.098Z,3.47
2019-06-10T04:38:08.472Z,3.70
2019-06-10T04:40:38.888Z,3.87
2019-06-10T04:43:09.281Z,3.35
2019-06-10T04:45:39.666Z,3.58
2019-06-10T04:48:12.300Z,3.85
2019-06-10T04:50:46.208Z,3.40
2019-06-10T04:53:14.275Z,3.55
2019-06-10T04:55:44.751Z,4.03
2019-06-10T04:58:15.143Z,4.00
2019-06-10T05:00:45.999Z,4.03
2019-06-10T05:03:16.580Z,3.85
2019-06-10T05:05:47.520Z,3.55
2019-06-10T05:08:18.999Z,3.33
2019-06-10T05:10:49.428Z,3.37
2019-06-10T05:13:19.819Z,3.30
2019-06-10T05:15:52.583Z,3.70
2019-06-10T05:18:24.237Z,3.22
2019-06-10T05:20:58.548Z,3.05
2019-06-10T05:23:27.895Z,3.00
2019-06-10T05:25:58.514Z,3.20
2019-06-10T05:28:30.014Z,2.83
2019-06-10T05:31:02.759Z,3.12
2019-06-10T05:33:33.499Z,2.80
2019-06-10T05:36:04.730Z,2.47
2019-06-10T05:38:35.484Z,2.52
2019-06-10T05:41:07.049Z,2.60
2019-06-10T05:43:37.490Z,2.50
2019-06-10T05:46:08.059Z,2.83
2019-06-10T05:48:38.529Z,2.83
2019-06-10T05:51:08.917Z,3.22
2019-06-10T05:53:39.308Z,2.60
2019-06-10T05:56:09.866Z,3.10
2019-06-10T05:58:40.274Z,3.15
2019-06-10T06:01:12.967Z,2.90
2019-06-10T06:03:43.913Z,2.80
2019-06-10T06:06:14.926Z,3.08
2019-06-10T06:08:45.426Z,2.83
2019-06-10T06:11:15.861Z,3.10
2019-06-10T06:13:46.357Z,2.52
2019-06-10T06:16:16.850Z,3.30
2019-06-10T06:18:47.336Z,2.90
2019-06-10T06:21:25.470Z,2.30
2019-06-10T06:23:52.608Z,2.25
2019-06-10T06:26:23.608Z,2.40
2019-06-10T06:28:54.536Z,2.60
2019-06-10T06:31:26.170Z,2.58
2019-06-10T06:33:57.103Z,2.60
2019-06-10T06:36:28.638Z,2.40
2019-06-10T06:38:59.115Z,2.70
2019-06-10T06:41:29.641Z,2.60
2019-06-10T06:44:02.159Z,2.58
2019-06-10T06:46:35.011Z,3.42
2019-06-10T06:49:04.308Z,2.55
2019-06-10T06:51:47.388Z,2.75
2019-06-10T06:54:06.990Z,2.52
2019-06-10T06:56:38.996Z,2.95
2019-06-10T06:59:09.822Z,2.33
2019-06-10T07:01:44.103Z,2.87
2019-06-10T07:04:13.490Z,3.15
2019-06-10T07:06:44.565Z,2.90
2019-06-10T07:09:14.950Z,2.83
2019-06-10T07:11:45.589Z,2.83
2019-06-10T07:14:16.911Z,3.83
2019-06-10T07:16:47.439Z,2.67
2019-06-10T07:19:17.821Z,2.80
2019-06-10T07:22:07.456Z,2.25
2019-06-10T07:24:20.329Z,2.50
2019-06-10T07:26:54.677Z,3.02
2019-06-10T07:29:23.057Z,2.40
2019-06-10T07:31:53.916Z,3.08
2019-06-10T07:34:24.397Z,2.80
2019-06-10T07:36:54.982Z,2.30
2019-06-10T07:39:25.480Z,2.40
2019-06-10T07:41:56.881Z,2.67
2019-06-10T07:44:27.375Z,2.45
2019-06-10T07:46:58.763Z,2.40
2019-06-10T07:49:29.286Z,2.75
2019-06-10T07:52:14.887Z,2.58
2019-06-10T07:54:33.243Z,2.30
2019-06-10T07:57:04.381Z,2.62
2019-06-10T07:59:35.413Z,2.83
2019-06-10T08:02:05.992Z,2.45
2019-06-10T08:04:38.049Z,2.55
2019-06-10T08:07:08.711Z,2.90
2019-06-10T08:09:39.205Z,2.80
2019-06-10T08:12:09.712Z,2.70
2019-06-10T08:14:42.245Z,2.75
2019-06-10T08:17:12.918Z,2.85
2019-06-10T08:19:48.853Z,2.70
2019-06-10T08:22:29.820Z,2.12
2019-06-10T08:24:48.136Z,2.70
2019-06-10T08:27:19.105Z,2.35
2019-06-10T08:29:58.552Z,2.60
2019-06-10T08:32:24.502Z,2.50
2019-06-10T08:34:54.225Z,2.67
2019-06-10T08:37:24.689Z,2.75
2019-06-10T08:39:55.252Z,2.75
2019-06-10T08:42:25.804Z,2.83
2019-06-10T08:44:59.707Z,2.83
2019-06-10T08:47:28.588Z,3.22
2019-06-10T08:49:59.089Z,3.27
2019-06-10T08:52:29.638Z,3.42
2019-06-10T08:55:03.147Z,3.20
2019-06-10T08:57:33.512Z,3.37
2019-06-10T09:00:12.507Z,3.50
2019-06-10T09:02:41.065Z,3.62
2019-06-10T09:05:17.670Z,3.55
2019-06-10T09:07:51.256Z,3.70
2019-06-10T09:10:22.633Z,4.20
2019-06-10T09:12:54.672Z,4.08
2019-06-10T09:15:25.326Z,4.75
2019-06-10T09:17:56.212Z,4.55
2019-06-10T09:20:27.184Z,4.45
2019-06-10T09:23:16.830Z,4.58
2019-06-10T09:25:33.310Z,5.12
2019-06-10T09:28:03.037Z,5.10
2019-06-10T09:30:33.555Z,5.17
2019-06-10T09:33:04.836Z,5.05
2019-06-10T09:35:35.612Z,5.45
2019-06-10T09:38:06.210Z,5.70
2019-06-10T09:40:59.017Z,5.53
2019-06-10T09:43:23.293Z,5.72
2019-06-10T09:45:56.379Z,6.17
2019-06-10T09:48:26.101Z,6.20
2019-06-10T09:50:58.800Z,6.10
2019-06-10T09:53:34.992Z,6.10
2019-06-10T09:56:04.102Z,6.05
2019-06-10T09:58:33.521Z,6.37
2019-06-10T10:01:04.828Z,5.87
2019-06-10T10:03:35.420Z,6.60
2019-06-10T10:06:13.997Z,6.65
2019-06-10T10:08:38.072Z,6.03
2019-06-10T10:11:08.726Z,7.33
2019-06-10T10:13:39.344Z,7.28
2019-06-10T10:16:09.825Z,7.37
2019-06-10T10:18:42.516Z,7.05
2019-06-10T10:21:13.033Z,7.40
2019-06-10T10:23:53.981Z,7.25
2019-06-10T10:26:16.129Z,7.72
2019-06-10T10:28:49.913Z,7.92
2019-06-10T10:31:18.703Z,7.62
2019-06-10T10:33:50.462Z,8.10
2019-06-10T10:36:22.572Z,8.20
2019-06-10T10:38:53.586Z,8.43
2019-06-10T10:41:24.216Z,8.50
2019-06-10T10:43:57.809Z,8.20
2019-06-10T10:46:27.155Z,7.75
2019-06-10T10:48:57.835Z,8.45
2019-06-10T10:51:28.171Z,8.08
2019-06-10T10:54:28.487Z,7.95
2019-06-10T10:56:33.386Z,9.18
2019-06-10T10:59:03.477Z,8.58
2019-06-10T11:01:35.029Z,7.90
2019-06-10T11:04:05.779Z,8.38
2019-06-10T11:06:37.866Z,8.83
2019-06-10T11:09:09.599Z,8.23
2019-06-10T11:11:43.641Z,7.78
2019-06-10T11:14:15.003Z,8.78
2019-06-10T11:16:45.527Z,8.85
2019-06-10T11:19:16.230Z,8.00
2019-06-10T11:21:47.421Z,9.88
2019-06-10T11:24:32.864Z,9.38
2019-06-10T11:26:53.193Z,9.23
2019-06-10T11:29:23.095Z,9.20
2019-06-10T11:31:55.699Z,9.68
2019-06-10T11:34:26.548Z,8.90
2019-06-10T11:36:58.178Z,9.08
2019-06-10T11:39:28.788Z,8.68
2019-06-10T11:41:59.159Z,9.13
2019-06-10T11:44:30.057Z,9.25
2019-06-10T11:47:07.320Z,9.48
2019-06-10T11:49:37.869Z,9.10
2019-06-10T11:52:12.439Z,9.73
2019-06-10T11:54:55.705Z,9.68
2019-06-10T11:57:14.171Z,9.80
2019-06-10T11:59:44.594Z,9.53
2019-06-10T12:02:15.050Z,10.05
2019-06-10T12:04:45.656Z,9.00
2019-06-10T12:07:16.387Z,9.50
2019-06-10T12:09:46.942Z,8.33
2019-06-10T12:12:17.475Z,9.00
2019-06-10T12:14:49.281Z,9.23
2019-06-10T12:17:35.233Z,9.40
2019-06-10T12:19:55.606Z,9.40
2019-06-10T12:22:24.577Z,9.85
2019-06-10T12:25:21.084Z,9.88
2019-06-10T12:27:27.219Z,9.68
2019-06-10T12:30:00.263Z,9.28
2019-06-10T12:32:33.013Z,9.53
2019-06-10T12:35:05.343Z,9.40
2019-06-10T12:37:36.253Z,9.20
2019-06-10T12:40:12.786Z,9.28
2019-06-10T12:42:43.099Z,9.30
2019-06-10T12:45:13.859Z,9.08
2019-06-10T12:47:44.400Z,9.03
2019-06-10T12:50:14.978Z,9.40
2019-06-10T12:52:45.347Z,9.00
2019-06-10T12:55:15.897Z,8.98
2019-06-10T12:57:46.383Z,9.25
2019-06-10T13:00:23.255Z,9.10
2019-06-10T13:02:53.023Z,9.03
2019-06-10T13:05:23.033Z,9.25
2019-06-10T13:07:53.776Z,9.68
2019-06-10T13:10:42.927Z,8.98
2019-06-10T13:13:13.521Z,9.20
2019-06-10T13:15:43.978Z,8.93
2019-06-10T13:18:19.164Z,8.70
2019-06-10T13:20:46.438Z,9.80
2019-06-10T13:23:23.849Z,9.13
2019-06-10T13:25:55.347Z,9.65
2019-06-10T13:28:22.265Z,9.93
2019-06-10T13:30:54.485Z,9.00
2019-06-10T13:33:25.016Z,9.48
2019-06-10T13:35:56.695Z,9.23
2019-06-10T13:38:27.619Z,9.50
2019-06-10T13:40:59.476Z,9.10
2019-06-10T13:43:33.044Z,9.10
2019-06-10T13:46:03.107Z,9.10
2019-06-10T13:48:34.281Z,9.10
2019-06-10T13:51:09.120Z,8.68
2019-06-10T13:53:36.953Z,8.95
2019-06-10T13:56:34.697Z,9.05
2019-06-10T13:58:45.031Z,8.65
2019-06-10T14:01:20.761Z,8.90
2019-06-10T14:03:44.184Z,8.95
2019-06-10T14:06:32.583Z,9.20
2019-06-10T14:08:47.018Z,9.25
2019-06-10T14:11:18.968Z,9.43
2019-06-10T14:13:52.428Z,8.70
2019-06-10T14:16:23.424Z,8.55
2019-06-10T14:18:54.396Z,9.30
2019-06-10T14:21:24.916Z,9.90
2019-06-10T14:23:55.341Z,9.63
2019-06-10T14:26:39.858Z,9.03
2019-06-10T14:28:58.148Z,9.20
2019-06-10T14:31:42.848Z,9.23
2019-06-10T14:34:00.771Z,8.50
2019-06-10T14:36:32.541Z,9.00
2019-06-10T14:39:06.029Z,8.85
2019-06-10T14:41:36.573Z,8.95
2019-06-10T14:44:08.603Z,8.85
2019-06-10T14:46:39.248Z,8.50
2019-06-10T14:49:10.853Z,9.30
2019-06-10T14:51:43.107Z,9.40
2019-06-10T14:54:18.022Z,8.78
2019-06-10T14:56:53.623Z,8.85
2019-06-10T14:59:22.301Z,9.00
2019-06-10T15:01:52.274Z,8.08
2019-06-10T15:04:23.056Z,8.33
2019-06-10T15:06:53.934Z,8.28
2019-06-10T15:09:24.402Z,8.40
2019-06-10T15:11:54.963Z,8.60
2019-06-10T15:14:25.403Z,8.48
2019-06-10T15:16:55.899Z,8.55
2019-06-10T15:19:29.033Z,8.70
2019-06-10T15:21:58.413Z,8.48
2019-06-10T15:24:28.784Z,8.60
2019-06-10T15:27:11.937Z,9.43
2019-06-10T15:29:32.856Z,9.03
2019-06-10T15:32:14.643Z,8.10
2019-06-10T15:34:36.465Z,8.43
2019-06-10T15:37:06.945Z,8.45
2019-06-10T15:39:37.347Z,8.70
2019-06-10T15:42:07.741Z,8.53
2019-06-10T15:44:48.598Z,8.48
2019-06-10T15:47:13.865Z,8.40
2019-06-10T15:49:42.313Z,8.30
2019-06-10T15:52:13.916Z,7.70
2019-06-10T15:54:44.798Z,8.08
2019-06-10T15:57:31.780Z,8.08
2019-06-10T15:59:47.330Z,8.48
2019-06-10T16:02:19.467Z,7.97
2019-06-10T16:04:52.442Z,8.50
2019-06-10T16:07:25.364Z,8.60
2019-06-10T16:09:54.340Z,8.38
2019-06-10T16:12:26.794Z,8.73
2019-06-10T16:14:56.949Z,8.60
2019-06-10T16:17:30.073Z,9.13
2019-06-10T16:19:59.438Z,7.87
2019-06-10T16:22:29.893Z,9.58
2019-06-10T16:25:00.258Z,8.40
2019-06-10T16:27:46.294Z,8.70
2019-06-10T16:30:02.938Z,8.88
2019-06-10T16:32:33.329Z,8.98
2019-06-10T16:35:05.741Z,9.60
2019-06-10T16:37:36.198Z,8.75
2019-06-10T16:40:07.001Z,9.20
2019-06-10T16:42:37.424Z,8.60
2019-06-10T16:45:07.779Z,9.18
2019-06-10T16:47:38.317Z,9.10
2019-06-10T16:50:09.310Z,9.20
2019-06-10T16:52:42.946Z,9.78
2019-06-10T16:55:12.745Z,9.33
2019-06-10T16:57:58.396Z,8.55
2019-06-10T17:00:15.505Z,8.25
2019-06-10T17:02:46.169Z,8.95
2019-06-10T17:05:16.648Z,8.40
2019-06-10T17:07:47.522Z,8.90
2019-06-10T17:10:17.900Z,8.48
2019-06-10T17:12:49.954Z,9.05
2019-06-10T17:15:21.088Z,8.53
2019-06-10T17:17:52.200Z,9.25
2019-06-10T17:20:23.614Z,8.40
2019-06-10T17:22:54.778Z,8.23
2019-06-10T17:25:26.557Z,8.73
2019-06-10T17:27:57.361Z,9.43
2019-06-10T17:30:28.502Z,8.85
2019-06-10T17:32:59.562Z,8.73
2019-06-10T17:35:32.959Z,8.93
2019-06-10T17:38:02.821Z,9.08
2019-06-10T17:40:33.725Z,10.63
2019-06-10T17:43:04.349Z,9.15
2019-06-10T17:45:34.896Z,9.83
2019-06-10T17:48:05.306Z,9.28
2019-06-10T17:50:35.695Z,9.08
2019-06-10T17:53:06.140Z,9.08
2019-06-10T17:55:36.524Z,9.33
2019-06-10T17:58:06.961Z,9.40
2019-06-10T18:00:37.357Z,8.88
2019-06-10T18:03:08.033Z,9.83
2019-06-10T18:05:38.566Z,8.73
2019-06-10T18:08:09.039Z,8.45
2019-06-10T18:10:39.577Z,9.55
2019-06-10T18:13:16.414Z,10.08
2019-06-10T18:15:42.350Z,9.20
2019-06-10T18:18:13.032Z,9.40
2019-06-10T18:20:44.355Z,10.10
2019-06-10T18:23:14.863Z,8.88
2019-06-10T18:25:45.263Z,9.30
2019-06-10T18:28:15.708Z,8.73
2019-06-10T18:30:46.545Z,9.45
2019-06-10T18:33:16.937Z,9.63
2019-06-10T18:35:47.373Z,9.33
2019-06-10T18:38:17.925Z,9.43
2019-06-10T18:40:48.331Z,8.75
2019-06-10T18:43:18.724Z,9.93
2019-06-10T18:45:49.148Z,9.65
2019-06-10T18:48:19.572Z,9.98
2019-06-10T18:50:52.555Z,8.88
2019-06-10T18:53:23.428Z,9.95
2019-06-10T18:55:54.975Z,9.68
2019-06-10T18:58:25.528Z,9.55
2019-06-10T19:01:03.921Z,10.58
2019-06-10T19:03:28.698Z,9.73
2019-06-10T19:05:59.166Z,10.68
2019-06-10T19:08:29.555Z,10.43
2019-06-10T19:11:02.358Z,10.65
2019-06-10T19:13:35.266Z,10.35
2019-06-10T19:16:04.313Z,10.58
2019-06-10T19:18:36.036Z,9.88
2019-06-10T19:21:08.843Z,10.60
2019-06-10T19:23:39.756Z,10.50
2019-06-10T19:26:13.852Z,9.98
2019-06-10T19:29:03.731Z,10.43
2019-06-10T19:31:36.239Z,10.70
2019-06-10T19:34:06.086Z,10.43
2019-06-10T19:36:37.669Z,9.78
2019-06-10T19:39:08.300Z,10.10
2019-06-10T19:41:40.657Z,9.90
2019-06-10T19:44:12.967Z,10.63
2019-06-10T19:46:43.159Z,9.80
2019-06-10T19:49:13.750Z,10.20
2019-06-10T19:51:46.591Z,10.23
2019-06-10T19:54:16.337Z,10.18
2019-06-10T19:56:46.916Z,10.68
2019-06-10T19:59:17.291Z,10.50
2019-06-10T20:01:48.841Z,9.83
2019-06-10T20:04:19.350Z,10.53
2019-06-10T20:06:50.819Z,10.60
2019-06-10T20:09:22.658Z,11.03
2019-06-10T20:11:53.242Z,10.68
2019-06-10T20:14:23.770Z,10.43
2019-06-10T20:16:54.175Z,10.45
2019-06-10T20:19:24.622Z,10.38
2019-06-10T20:21:55.190Z,10.88
2019-06-10T20:24:25.689Z,11.40
2019-06-10T20:26:56.078Z,9.95
2019-06-10T20:29:26.465Z,10.98
2019-06-10T20:31:56.886Z,11.88
2019-06-10T20:34:28.139Z,10.65
2019-06-10T20:36:58.723Z,10.65
2019-06-10T20:39:29.682Z,11.78
2019-06-10T20:42:02.716Z,10.78
2019-06-10T20:44:32.692Z,10.55
2019-06-10T20:47:03.296Z,11.10
2019-06-10T20:49:33.761Z,10.45
2019-06-10T20:52:11.151Z,11.25
2019-06-10T20:54:36.530Z,10.80
2019-06-10T20:57:07.029Z,11.28
2019-06-10T20:59:39.067Z,10.88
2019-06-10T21:02:09.636Z,11.63
2019-06-10T21:04:41.697Z,10.60
2019-06-10T21:07:13.232Z,10.85
2019-06-10T21:09:44.434Z,12.13
2019-06-10T21:12:16.021Z,11.83
2019-06-10T21:14:47.221Z,11.68
2019-06-10T21:17:18.569Z,10.93
2019-06-10T21:19:49.213Z,10.90
2019-06-10T21:22:19.579Z,12.50
2019-06-10T21:24:51.350Z,11.20
2019-06-10T21:27:23.868Z,11.30
2019-06-10T21:29:54.908Z,11.68
2019-06-10T21:32:25.329Z,11.15
2019-06-10T21:34:55.791Z,11.18
2019-06-10T21:37:26.283Z,11.75
2019-06-10T21:39:56.695Z,11.20
2019-06-10T21:42:27.275Z,11.25
2019-06-10T21:44:57.645Z,11.78
2019-06-10T21:47:28.045Z,11.85
2019-06-10T21:49:58.432Z,11.12
2019-06-10T21:52:28.978Z,10.70
2019-06-10T21:54:59.361Z,10.75
2019-06-10T21:57:29.836Z,10.75
2019-06-10T22:00:02.388Z,10.63
2019-06-10T22:02:32.464Z,11.12
2019-06-10T22:05:03.456Z,10.38
2019-06-10T22:07:33.988Z,10.68
2019-06-10T22:10:08.015Z,11.60
2019-06-10T22:12:38.515Z,12.10
2019-06-10T22:15:12.483Z,11.55
2019-06-10T22:17:44.213Z,12.03
2019-06-10T22:20:14.724Z,11.30
2019-06-10T22:22:46.490Z,11.70
2019-06-10T22:25:17.081Z,11.53
2019-06-10T22:27:47.879Z,11.40
2019-06-10T22:30:18.293Z,10.68
2019-06-10T22:32:52.672Z,10.88
2019-06-10T22:35:23.038Z,11.48
2019-06-10T22:37:55.426Z,11.25
2019-06-10T22:40:26.113Z,11.95
2019-06-10T22:42:56.856Z,11.40
2019-06-10T22:45:27.206Z,11.45
2019-06-10T22:47:58.466Z,12.28
2019-06-10T22:50:28.885Z,11.73
2019-06-10T22:52:59.702Z,11.75
2019-06-10T22:55:32.226Z,11.70
2019-06-10T22:58:05.804Z,11.05
2019-06-10T23:00:34.446Z,11.48
2019-06-10T23:03:04.933Z,10.55
2019-06-10T23:05:35.367Z,10.53
2019-06-10T23:08:05.782Z,11.43
2019-06-10T23:10:37.255Z,11.15
2019-06-10T23:13:07.835Z,11.48
2019-06-10T23:15:38.384Z,11.78
2019-06-10T23:18:08.904Z,11.18
2019-06-10T23:20:39.508Z,11.57
2019-06-10T23:23:12.663Z,11.10
2019-06-10T23:25:43.160Z,11.35
2019-06-10T23:28:13.616Z,10.70
2019-06-10T23:30:44.918Z,10.98
2019-06-10T23:33:15.525Z,10.50
2019-06-10T23:35:47.684Z,11.10
2019-06-10T23:38:18.251Z,11.08
2019-06-10T23:40:48.621Z,11.28
2019-06-10T23:43:19.023Z,11.03
2019-06-10T23:45:49.388Z,12.28
2019-06-10T23:48:22.558Z,11.70
2019-06-10T23:50:53.828Z,11.55
2019-06-10T23:53:24.185Z,11.15
2019-06-10T23:55:55.175Z,11.15
2019-06-10T23:58:26.685Z,11.48
